Time;durP1;ratioP1;P1;durP2;ratioP2;P2;SDS_P1;SDS_P2;PMS_P1;PMS_P2;Temp;Humidity;BMP_temperature;BMP_pressure;BME280_temperature;BME280_humidity;BME280_pressure;Samples;Min_cycle;Max_cycle;Signal;HPM_P1;HPM_P2
2022/12/10 00:01:20;;;;;;;74.63;28.48;;;-0.90;99.90;;;;;;4939100;29;20043;-84
2022/12/10 00:03:46;;;;;;;77.80;28.85;;;-0.30;99.90;;;;;;4907602;29;20386;-83
2022/12/10 00:06:21;;;;;;;77.03;29.15;;;-1.50;99.90;;;;;;4938947;29;20039;-84
2022/12/10 00:08:47;;;;;;;71.93;27.30;;;-1.50;99.90;;;;;;4925603;29;20086;-84
2022/12/10 00:11:13;;;;;;;77.55;28.90;;;-0.40;99.90;;;;;;4926755;29;20436;-84
2022/12/10 00:13:39;;;;;;;79.88;28.52;;;-1.40;99.90;;;;;;4926683;29;20055;-83
2022/12/10 00:16:06;;;;;;;76.70;28.90;;;-1.10;99.90;;;;;;4926450;29;20047;-84
2022/12/10 00:18:32;;;;;;;69.88;26.38;;;-1.40;99.90;;;;;;4941428;29;20415;-83
2022/12/10 00:20:58;;;;;;;81.35;29.08;;;-1.40;99.90;;;;;;4911174;29;20055;-83
2022/12/10 00:23:24;;;;;;;80.63;28.05;;;-1.40;99.90;;;;;;4941833;29;20058;-83
2022/12/10 00:25:49;;;;;;;74.22;28.55;;;-0.70;99.90;;;;;;4910765;29;20053;-83
2022/12/10 00:28:15;;;;;;;81.68;29.83;;;-1.40;99.90;;;;;;4942015;29;20479;-85
2022/12/10 00:30:41;;;;;;;78.93;30.00;;;-1.40;99.90;;;;;;4926598;29;20043;-84
2022/12/10 00:33:06;;;;;;;82.18;29.75;;;-0.70;99.90;;;;;;4958336;29;20058;-83
2022/12/10 00:35:35;;;;;;;75.63;29.67;;;-1.30;99.90;;;;;;4942165;29;20110;-82
2022/12/10 00:38:01;;;;;;;78.50;30.35;;;-1.30;99.90;;;;;;4941949;29;20417;-83
2022/12/10 00:40:26;;;;;;;92.55;31.38;;;-1.20;99.90;;;;;;4958390;29;20054;-83
2022/12/10 00:42:52;;;;;;;86.85;30.13;;;0.10;99.90;;;;;;4926409;29;20053;-84
2022/12/10 00:45:17;;;;;;;87.13;30.52;;;-1.20;99.90;;;;;;4941500;29;20133;-84
2022/12/10 00:47:43;;;;;;;81.32;30.25;;;-0.70;99.90;;;;;;4942404;29;20082;-83
2022/12/10 00:50:09;;;;;;;82.32;30.20;;;-1.00;99.90;;;;;;4925517;29;20066;-84
2022/12/10 00:52:34;;;;;;;79.38;29.70;;;-0.80;99.90;;;;;;4925572;29;20058;-83
2022/12/10 00:55:00;;;;;;;82.90;28.38;;;-1.10;99.90;;;;;;4941328;29;20404;-83
2022/12/10 00:57:26;;;;;;;79.57;29.08;;;-0.30;99.90;;;;;;4957264;29;20483;-83
2022/12/10 00:59:51;;;;;;;83.10;30.25;;;-1.00;99.90;;;;;;4940910;29;20050;-83
2022/12/10 01:02:17;;;;;;;75.32;30.17;;;-0.80;99.90;;;;;;4925412;29;20071;-84
2022/12/10 01:04:42;;;;;;;81.47;31.05;;;-0.90;99.90;;;;;;4941019;29;20047;-83
2022/12/10 01:07:10;;;;;;;74.30;29.33;;;0.50;99.90;;;;;;4925597;29;20047;-84
2022/12/10 01:09:35;;;;;;;77.07;29.30;;;-0.90;99.90;;;;;;4957252;29;20051;-83
2022/12/10 01:12:01;;;;;;;76.72;30.33;;;-0.20;99.90;;;;;;4926274;29;20066;-83
2022/12/10 01:14:29;;;;;;;80.32;29.88;;;-0.80;99.90;;;;;;4940897;29;20047;-83
2022/12/10 01:17:00;;;;;;;75.13;28.30;;;-0.80;99.90;;;;;;4925474;29;20043;-83
2022/12/10 01:19:25;;;;;;;84.78;31.33;;;-0.80;99.90;;;;;;4924312;29;20088;-84
2022/12/10 01:21:54;;;;;;;76.00;28.70;;;-0.90;99.90;;;;;;4941035;29;20481;-83
2022/12/10 01:24:21;;;;;;;77.60;29.95;;;-0.90;99.90;;;;;;4925084;29;20082;-83
2022/12/10 01:26:46;;;;;;;75.78;30.38;;;-0.60;99.90;;;;;;4926131;29;20055;-83
2022/12/10 01:29:12;;;;;;;82.45;31.15;;;-1.00;99.90;;;;;;4941415;29;20114;-83
2022/12/10 01:31:38;;;;;;;78.57;28.95;;;-1.00;99.90;;;;;;4925013;29;20040;-83
2022/12/10 01:34:05;;;;;;;78.25;30.30;;;-0.90;99.90;;;;;;4940741;29;20062;-83
2022/12/10 01:36:39;;;;;;;79.13;29.83;;;-1.00;99.90;;;;;;4940835;29;20047;-83
2022/12/10 01:39:06;;;;;;;81.57;30.58;;;-1.10;99.90;;;;;;4925558;29;20126;-83
2022/12/10 01:41:34;;;;;;;85.38;31.15;;;-1.10;99.90;;;;;;4924858;29;20051;-83
2022/12/10 01:44:09;;;;;;;84.43;31.80;;;0.30;99.90;;;;;;4924460;29;20491;-83
2022/12/10 01:46:40;;;;;;;73.93;29.13;;;-1.20;99.90;;;;;;4956479;29;20108;-83
2022/12/10 01:49:07;;;;;;;76.70;28.88;;;-1.20;99.90;;;;;;4925389;29;20143;-83
2022/12/10 01:51:34;;;;;;;77.32;30.70;;;-1.20;99.90;;;;;;4909357;29;20066;-83
2022/12/10 01:54:00;;;;;;;77.00;31.40;;;-1.20;99.90;;;;;;4924590;29;20051;-84
2022/12/10 01:56:26;;;;;;;85.43;32.50;;;-1.30;99.90;;;;;;4940901;29;20050;-83
2022/12/10 01:58:54;;;;;;;88.85;33.83;;;-1.30;99.90;;;;;;4940554;29;20391;-84
2022/12/10 02:01:20;;;;;;;88.55;32.47;;;0.00;99.90;;;;;;4925206;29;20055;-83
2022/12/10 02:04:04;;;;;;;83.18;30.42;;;-1.20;99.90;;;;;;4956154;29;20043;-83
2022/12/10 02:06:42;;;;;;;88.05;32.70;;;0.10;99.90;;;;;;4940285;29;20475;-84
2022/12/10 02:09:29;;;;;;;83.40;29.88;;;-1.30;99.90;;;;;;4956071;29;20082;-83
2022/12/10 02:11:58;;;;;;;83.55;30.88;;;-1.30;99.90;;;;;;4940727;29;20134;-83
2022/12/10 02:14:30;;;;;;;80.18;31.23;;;-1.30;99.90;;;;;;4924606;29;20115;-83
2022/12/10 02:17:03;;;;;;;91.28;32.78;;;-1.30;99.90;;;;;;4924407;29;20051;-83
2022/12/10 02:19:49;;;;;;;80.38;30.90;;;-1.30;99.90;;;;;;4909436;29;20567;-83
2022/12/10 02:22:15;;;;;;;79.10;29.85;;;-1.30;99.90;;;;;;4956190;29;20482;-83
2022/12/10 02:24:41;;;;;;;93.13;36.03;;;-0.10;99.90;;;;;;4924490;29;20126;-83
2022/12/10 02:27:13;;;;;;;86.75;33.40;;;-1.30;99.90;;;;;;4940099;29;20053;-83
2022/12/10 02:29:39;;;;;;;90.47;33.90;;;-1.30;99.90;;;;;;4925120;29;20059;-83
2022/12/10 02:32:17;;;;;;;88.90;33.33;;;0.00;99.90;;;;;;4923746;29;20043;-84
2022/12/10 02:34:46;;;;;;;89.82;32.47;;;-1.30;99.90;;;;;;4926016;29;20086;-82
2022/12/10 02:37:23;;;;;;;91.30;32.97;;;-1.40;99.90;;;;;;4924273;29;20078;-83
2022/12/10 02:39:50;;;;;;;88.20;33.80;;;-1.40;99.90;;;;;;4909493;29;20130;-84
2022/12/10 02:42:15;;;;;;;87.97;34.30;;;-1.40;99.90;;;;;;4923582;29;20043;-83
2022/12/10 02:44:41;;;;;;;101.65;36.65;;;-1.40;99.90;;;;;;4908217;29;20050;-84
2022/12/10 02:47:07;;;;;;;96.18;35.85;;;0.20;99.90;;;;;;4939899;29;20051;-83
2022/12/10 02:49:32;;;;;;;90.00;33.78;;;-1.50;99.90;;;;;;4924479;29;20043;-82
2022/12/10 02:51:59;;;;;;;90.07;32.97;;;-1.50;99.90;;;;;;4924071;29;20054;-83
2022/12/10 02:54:51;;;;;;;101.50;35.85;;;-1.50;99.90;;;;;;4908797;29;20047;-83
2022/12/10 02:57:44;;;;;;;90.05;32.85;;;-0.70;99.90;;;;;;4952344;29;20407;-83
2022/12/10 03:00:18;;;;;;;94.95;32.60;;;-1.60;99.90;;;;;;4939616;29;20062;-83
2022/12/10 03:03:22;;;;;;;90.82;34.38;;;-1.40;99.90;;;;;;4923238;29;20561;-83
2022/12/10 03:06:07;;;;;;;99.93;34.60;;;-1.60;99.90;;;;;;4936622;29;20062;-83
2022/12/10 03:08:38;;;;;;;93.00;34.40;;;-1.60;99.90;;;;;;4956043;29;20647;-83
2022/12/10 03:11:13;;;;;;;101.15;35.05;;;-1.60;99.90;;;;;;4924626;29;20047;-83
2022/12/10 03:13:49;;;;;;;98.72;34.38;;;-1.70;99.90;;;;;;4939738;29;20055;-82
2022/12/10 03:16:15;;;;;;;99.15;35.20;;;-1.70;99.90;;;;;;4941009;29;20494;-83
2022/12/10 03:18:41;;;;;;;105.72;36.65;;;-1.60;99.90;;;;;;4922759;29;20134;-83
2022/12/10 03:21:06;;;;;;;102.13;35.55;;;-1.70;99.90;;;;;;4907767;29;20134;-84
2022/12/10 03:23:37;;;;;;;98.82;36.45;;;-1.80;99.90;;;;;;4923281;29;20155;-82
2022/12/10 03:26:02;;;;;;;99.13;35.63;;;-1.80;99.90;;;;;;4907596;29;20054;-83
2022/12/10 03:28:28;;;;;;;102.45;35.70;;;-1.70;99.90;;;;;;4923201;29;20058;-83
2022/12/10 03:30:54;;;;;;;97.90;35.63;;;-1.80;99.90;;;;;;4922773;29;20075;-83
2022/12/10 03:33:19;;;;;;;109.65;35.65;;;-1.80;99.90;;;;;;4954919;29;20046;-83
2022/12/10 03:35:45;;;;;;;101.95;35.75;;;-1.80;99.90;;;;;;4938717;29;20042;-83
2022/12/10 03:38:11;;;;;;;105.55;36.17;;;-1.80;99.90;;;;;;4923033;29;20055;-83
2022/12/10 03:40:36;;;;;;;101.63;35.60;;;-0.70;99.90;;;;;;4923758;29;20395;-83
2022/12/10 03:43:02;;;;;;;101.57;36.05;;;-1.90;99.90;;;;;;4940209;29;20384;-82
2022/12/10 03:45:28;;;;;;;97.80;36.28;;;-1.90;99.90;;;;;;4942664;29;20051;-83
2022/12/10 03:47:53;;;;;;;98.20;36.13;;;-0.20;99.90;;;;;;4943225;29;20051;-83
2022/12/10 03:50:19;;;;;;;110.68;36.35;;;-2.00;99.90;;;;;;4927051;29;20058;-83
2022/12/10 03:52:45;;;;;;;103.55;35.95;;;-0.80;99.90;;;;;;4926609;29;20070;-83
2022/12/10 03:55:10;;;;;;;99.70;35.83;;;-2.10;99.90;;;;;;4942773;29;20039;-83
2022/12/10 03:57:36;;;;;;;97.75;34.50;;;-1.50;99.90;;;;;;4942334;29;20051;-83
2022/12/10 04:00:03;;;;;;;107.32;35.25;;;-2.10;99.90;;;;;;4942682;29;20054;-83
2022/12/10 04:02:29;;;;;;;101.63;34.58;;;-2.10;99.90;;;;;;4927450;29;20051;-83
2022/12/10 04:04:55;;;;;;;107.07;35.97;;;-2.20;99.90;;;;;;4942714;29;20349;-83
2022/12/10 04:07:20;;;;;;;101.82;35.60;;;-2.20;99.90;;;;;;4926656;29;20053;-82
2022/12/10 04:09:46;;;;;;;101.95;36.10;;;-2.20;99.90;;;;;;4926403;29;20061;-83
2022/12/10 04:12:12;;;;;;;103.15;36.63;;;-3.10;99.90;;;;;;4942474;29;20078;-83
2022/12/10 04:17:21;;;;;;;103.80;35.25;;;-2.20;99.90;;;;;;4958883;29;20070;-83
2022/12/10 04:19:47;;;;;;;101.93;36.15;;;-1.30;99.90;;;;;;4925964;29;20055;-82
2022/12/10 04:27:41;;;;;;;117.82;36.38;;;-2.30;99.90;;;;;;4958804;29;20472;-83
2022/12/10 04:30:08;;;;;;;95.13;33.55;;;-2.30;99.90;;;;;;4926465;29;20051;-82
2022/12/10 04:32:34;;;;;;;106.00;35.67;;;-2.30;99.90;;;;;;4941777;29;20129;-83
2022/12/10 04:34:59;;;;;;;106.95;36.22;;;-2.30;99.90;;;;;;4942187;29;20087;-83
2022/12/10 04:37:25;;;;;;;112.55;36.60;;;-2.30;99.90;;;;;;4942316;29;20082;-83
2022/12/10 04:39:51;;;;;;;106.07;36.85;;;-2.30;99.90;;;;;;4926592;29;20062;-83
2022/12/10 04:42:17;;;;;;;100.07;33.90;;;-1.00;99.90;;;;;;4925588;29;20047;-83
2022/12/10 04:44:43;;;;;;;109.47;35.95;;;-1.30;99.90;;;;;;4925612;29;20114;-82
2022/12/10 04:47:09;;;;;;;112.88;36.13;;;-1.10;99.90;;;;;;4925684;29;20051;-83
2022/12/10 04:49:35;;;;;;;114.93;35.83;;;-2.40;99.90;;;;;;4910803;29;20047;-83
2022/12/10 04:52:00;;;;;;;99.72;33.28;;;-2.40;99.90;;;;;;4941624;29;20058;-83
2022/12/10 04:54:26;;;;;;;114.55;37.63;;;-2.40;99.90;;;;;;4974319;28;20098;-83
2022/12/10 04:56:52;;;;;;;110.43;36.80;;;-3.00;99.90;;;;;;4925737;29;20479;-83
2022/12/10 04:59:17;;;;;;;108.55;37.58;;;-1.00;99.90;;;;;;4957343;29;20102;-83
2022/12/10 05:01:43;;;;;;;120.90;38.30;;;-2.40;99.90;;;;;;4925258;29;20141;-83
2022/12/10 05:04:10;;;;;;;113.63;37.30;;;-2.40;99.90;;;;;;4925914;29;20133;-83
2022/12/10 05:06:36;;;;;;;104.13;35.95;;;-2.40;99.90;;;;;;4925605;29;20105;-83
2022/12/10 05:09:02;;;;;;;110.55;37.58;;;-2.50;99.90;;;;;;4941505;29;20047;-83
2022/12/10 05:11:29;;;;;;;116.65;38.00;;;-1.40;99.90;;;;;;4925663;29;20050;-84
2022/12/10 05:13:55;;;;;;;117.32;38.25;;;-2.50;99.90;;;;;;4925438;29;20109;-83
2022/12/10 05:16:21;;;;;;;109.10;37.20;;;-0.90;99.90;;;;;;4941756;29;20079;-83
2022/12/10 05:18:47;;;;;;;114.88;35.35;;;-2.50;99.90;;;;;;4941159;29;20131;-84
2022/12/10 05:21:14;;;;;;;104.72;36.92;;;-2.60;99.90;;;;;;4925792;29;20066;-83
2022/12/10 05:23:43;;;;;;;105.70;36.28;;;-2.60;99.90;;;;;;4925191;29;20043;-83
2022/12/10 05:26:10;;;;;;;113.13;37.75;;;-2.60;99.90;;;;;;4941459;29;20055;-83
2022/12/10 05:28:38;;;;;;;120.47;38.33;;;-2.20;99.90;;;;;;4925070;29;20051;-82
2022/12/10 05:31:04;;;;;;;106.72;35.67;;;-2.60;99.90;;;;;;4909412;29;20402;-84
2022/12/10 05:33:29;;;;;;;117.72;38.72;;;-1.30;99.90;;;;;;4924859;29;20130;-83
2022/12/10 05:36:00;;;;;;;105.88;36.97;;;-2.70;99.90;;;;;;4940624;29;20561;-82
2022/12/10 05:38:26;;;;;;;117.80;37.50;;;-1.40;99.90;;;;;;4924868;29;20043;-82
2022/12/10 05:40:53;;;;;;;110.07;36.55;;;-2.70;99.90;;;;;;4924862;29;20102;-83
2022/12/10 05:43:18;;;;;;;125.63;37.45;;;-2.70;99.90;;;;;;4940250;29;20058;-84
2022/12/10 05:45:44;;;;;;;114.00;36.28;;;-2.70;99.90;;;;;;4939908;29;20044;-84
2022/12/10 05:48:10;;;;;;;113.93;36.53;;;-2.70;99.90;;;;;;4956406;29;20043;-84
2022/12/10 05:50:36;;;;;;;117.10;37.78;;;-2.70;99.90;;;;;;4925603;29;20138;-82
2022/12/10 05:53:02;;;;;;;114.50;36.90;;;-2.70;99.90;;;;;;4924731;29;20093;-82
2022/12/10 05:55:28;;;;;;;107.57;35.50;;;-2.70;99.90;;;;;;4940747;29;20044;-83
2022/12/10 05:57:55;;;;;;;110.38;35.25;;;-2.80;99.90;;;;;;4940371;29;20141;-83
2022/12/10 06:00:23;;;;;;;116.15;36.92;;;-2.80;99.90;;;;;;4957391;29;20129;-83
2022/12/10 06:02:49;;;;;;;111.97;36.42;;;-2.80;99.90;;;;;;4925335;29;20051;-83
2022/12/10 06:05:15;;;;;;;117.20;37.05;;;-2.80;99.90;;;;;;4940473;28;20386;-83
2022/12/10 06:07:41;;;;;;;112.38;37.22;;;-2.80;99.90;;;;;;4924213;29;20043;-83
2022/12/10 06:10:07;;;;;;;115.13;38.40;;;-2.80;99.90;;;;;;4924612;29;20428;-83
2022/12/10 06:12:32;;;;;;;112.80;36.75;;;-2.80;99.90;;;;;;4940101;29;20479;-83
2022/12/10 06:14:58;;;;;;;117.55;37.75;;;-2.90;99.90;;;;;;4924092;29;20066;-83
2022/12/10 06:17:24;;;;;;;112.97;37.30;;;-2.90;99.90;;;;;;4939878;29;20128;-82
2022/12/10 06:19:49;;;;;;;122.90;40.20;;;-2.00;99.90;;;;;;4939175;29;20055;-82
2022/12/10 06:22:15;;;;;;;110.72;36.13;;;-2.90;99.90;;;;;;4955797;29;20130;-83
2022/12/10 06:24:41;;;;;;;117.18;38.40;;;-2.90;99.90;;;;;;4939475;29;20046;-83
2022/12/10 06:27:07;;;;;;;120.85;36.95;;;-2.90;99.90;;;;;;4955601;29;20055;-83
2022/12/10 06:29:32;;;;;;;107.15;36.50;;;-2.90;99.90;;;;;;4939540;29;20110;-83
2022/12/10 06:31:58;;;;;;;117.00;38.55;;;-2.80;99.90;;;;;;4924097;29;20053;-83
2022/12/10 06:34:23;;;;;;;124.85;37.42;;;-2.80;99.90;;;;;;4956343;29;20126;-83
2022/12/10 06:36:49;;;;;;;115.80;38.47;;;-2.80;99.90;;;;;;4923879;29;20047;-83
2022/12/10 06:39:15;;;;;;;115.88;36.35;;;-2.80;99.90;;;;;;4939581;29;20054;-84
2022/12/10 06:41:43;;;;;;;106.43;36.38;;;-2.70;99.90;;;;;;4939449;29;20058;-85
2022/12/10 06:44:10;;;;;;;111.97;37.13;;;-2.70;99.90;;;;;;4941072;29;20047;-82
2022/12/10 06:46:35;;;;;;;126.35;39.45;;;-2.60;99.90;;;;;;4925954;29;20050;-84
2022/12/10 06:49:01;;;;;;;115.32;37.70;;;-2.50;99.90;;;;;;4925271;29;20055;-83
2022/12/10 06:51:27;;;;;;;117.88;38.20;;;-0.90;99.90;;;;;;4941019;29;20051;-83
2022/12/10 06:53:53;;;;;;;115.65;37.15;;;-2.50;99.90;;;;;;4940724;29;20047;-83
2022/12/10 06:56:19;;;;;;;119.63;40.63;;;-2.50;99.90;;;;;;4955938;29;20487;-83
2022/12/10 06:58:44;;;;;;;128.05;38.28;;;-2.50;99.90;;;;;;4923704;29;20043;-83
2022/12/10 07:01:21;;;;;;;123.65;39.42;;;-2.00;99.90;;;;;;4955445;29;20114;-83
2022/12/10 07:03:50;;;;;;;118.65;36.53;;;-2.50;99.90;;;;;;4924339;29;20051;-84
2022/12/10 07:06:16;;;;;;;128.20;40.53;;;-2.50;99.90;;;;;;4925605;29;20059;-84
2022/12/10 07:08:41;;;;;;;108.30;37.88;;;-1.50;99.90;;;;;;4940246;29;20043;-84
2022/12/10 07:11:11;;;;;;;111.25;38.20;;;-2.50;99.90;;;;;;4940274;29;20081;-84
2022/12/10 07:13:37;;;;;;;117.03;38.95;;;-2.50;99.90;;;;;;4925734;29;20458;-84
2022/12/10 07:16:03;;;;;;;124.13;38.40;;;-2.50;99.90;;;;;;4924063;29;20047;-82
2022/12/10 07:18:29;;;;;;;127.25;39.40;;;-2.50;99.90;;;;;;4956586;28;20051;-82
2022/12/10 07:20:54;;;;;;;134.95;40.00;;;-2.60;99.90;;;;;;4942840;28;20148;-83
2022/12/10 07:23:20;;;;;;;127.07;39.53;;;-2.60;99.90;;;;;;4943417;28;20129;-83
2022/12/10 07:25:46;;;;;;;117.03;38.88;;;-2.60;99.90;;;;;;4958782;28;20470;-82
2022/12/10 07:28:11;;;;;;;112.60;39.60;;;-2.60;99.90;;;;;;4927102;28;20042;-84
2022/12/10 07:30:37;;;;;;;124.15;39.65;;;-2.60;99.90;;;;;;4926644;28;20050;-82
2022/12/10 07:33:03;;;;;;;122.35;38.80;;;-1.00;99.90;;;;;;4943149;28;20468;-82
2022/12/10 07:35:29;;;;;;;124.53;37.28;;;-2.60;99.90;;;;;;4942446;28;20367;-82
2022/12/10 07:37:54;;;;;;;126.10;41.80;;;-1.50;99.90;;;;;;4910317;28;20509;-82
2022/12/10 07:40:20;;;;;;;123.05;39.30;;;-2.10;99.90;;;;;;4926101;28;20043;-83
2022/12/10 07:42:45;;;;;;;111.38;38.05;;;-2.60;99.90;;;;;;4942484;28;20057;-82
2022/12/10 07:45:11;;;;;;;114.93;37.25;;;-2.60;99.90;;;;;;4926022;28;20047;-83
2022/12/10 07:47:37;;;;;;;122.03;39.55;;;-2.60;99.90;;;;;;4926342;28;20506;-82
2022/12/10 07:50:03;;;;;;;110.78;38.65;;;-2.60;99.90;;;;;;4926532;28;20486;-82
2022/12/10 07:52:29;;;;;;;121.53;39.38;;;-2.60;99.90;;;;;;4926388;28;20106;-82
2022/12/10 07:54:55;;;;;;;118.47;40.00;;;-2.60;99.90;;;;;;4943048;28;20134;-82
2022/12/10 07:57:20;;;;;;;121.85;39.90;;;-2.60;99.90;;;;;;4942567;28;20177;-82
2022/12/10 07:59:46;;;;;;;128.98;40.90;;;-2.60;99.90;;;;;;4926733;28;20414;-83
2022/12/10 08:02:12;;;;;;;124.93;37.92;;;-2.60;99.90;;;;;;4942381;28;20066;-84
2022/12/10 08:04:38;;;;;;;115.78;40.38;;;-1.70;99.90;;;;;;4926282;28;20479;-84
2022/12/10 08:07:03;;;;;;;109.50;39.50;;;-2.60;99.90;;;;;;4926701;28;20058;-84
2022/12/10 08:09:30;;;;;;;116.85;39.65;;;-2.60;99.90;;;;;;4926166;28;20055;-83
2022/12/10 08:11:55;;;;;;;117.38;40.58;;;-2.60;99.90;;;;;;4926346;28;20039;-83
2022/12/10 08:14:21;;;;;;;116.82;38.50;;;-2.60;99.90;;;;;;4926448;28;20202;-84
2022/12/10 08:16:47;;;;;;;120.63;37.97;;;-2.50;99.90;;;;;;4942297;28;20451;-83
2022/12/10 08:19:12;;;;;;;113.70;37.67;;;-2.50;99.90;;;;;;4941170;28;20051;-83
2022/12/10 08:21:38;;;;;;;113.80;37.47;;;-2.50;99.90;;;;;;4957525;28;20058;-83
2022/12/10 08:24:04;;;;;;;123.50;39.80;;;-2.40;99.90;;;;;;4942244;28;20098;-84
2022/12/10 08:26:31;;;;;;;108.32;39.30;;;-2.40;99.90;;;;;;4957662;28;20521;-84
2022/12/10 08:28:57;;;;;;;118.18;40.53;;;-2.40;99.90;;;;;;4926968;28;20055;-83
2022/12/10 08:31:24;;;;;;;120.90;39.00;;;-1.80;99.90;;;;;;4930014;28;20054;-83
2022/12/10 08:33:49;;;;;;;115.55;38.13;;;-2.30;99.90;;;;;;4913879;28;20105;-82
2022/12/10 08:36:16;;;;;;;122.13;41.60;;;-2.30;99.90;;;;;;4945298;28;20054;-85
2022/12/10 08:38:41;;;;;;;118.85;40.17;;;-2.30;99.90;;;;;;4929900;28;20043;-84
2022/12/10 08:41:25;;;;;;;123.72;42.17;;;-2.10;99.90;;;;;;4930434;28;20057;-84
2022/12/10 08:43:51;;;;;;;111.05;38.05;;;-2.10;99.90;;;;;;4931060;28;20042;-84
2022/12/10 08:46:17;;;;;;;111.22;35.58;;;-1.10;99.90;;;;;;4930438;28;20047;-84
2022/12/10 08:48:43;;;;;;;103.88;36.33;;;-1.40;99.90;;;;;;4945978;28;20050;-85
2022/12/10 08:51:10;;;;;;;115.72;39.00;;;-1.90;99.90;;;;;;4929745;28;20053;-87
2022/12/10 08:53:35;;;;;;;121.88;40.85;;;-1.70;99.90;;;;;;4914950;28;20411;-87
2022/12/10 08:56:01;;;;;;;105.72;40.17;;;-1.50;99.90;;;;;;4929281;28;20130;-84
2022/12/10 08:58:27;;;;;;;110.13;38.45;;;-1.80;99.90;;;;;;4944857;28;20556;-85
2022/12/10 09:00:52;;;;;;;111.88;37.67;;;-1.10;99.90;;;;;;4929078;28;20129;-83
2022/12/10 09:03:18;;;;;;;118.10;40.35;;;-1.30;99.90;;;;;;4946187;28;20049;-84
2022/12/10 09:05:44;;;;;;;105.78;38.25;;;-1.10;99.90;;;;;;4914362;28;20113;-84
2022/12/10 09:08:10;;;;;;;106.10;38.55;;;0.30;99.90;;;;;;4962015;28;20128;-85
2022/12/10 09:10:36;;;;;;;104.05;39.33;;;-0.80;99.90;;;;;;4929242;28;20047;-85
2022/12/10 09:13:02;;;;;;;106.55;39.92;;;-0.60;99.90;;;;;;4930301;28;20046;-85
2022/12/10 09:15:28;;;;;;;108.25;37.90;;;-0.70;99.90;;;;;;4945125;28;20042;-86
2022/12/10 09:17:54;;;;;;;100.15;38.40;;;0.90;99.90;;;;;;4929749;28;20193;-85
2022/12/10 09:20:19;;;;;;;105.38;38.08;;;-0.60;99.90;;;;;;4928467;28;20055;-86
2022/12/10 09:22:45;;;;;;;96.55;36.80;;;-0.50;99.90;;;;;;4929088;28;20046;-85
2022/12/10 09:25:11;;;;;;;94.47;36.45;;;0.60;99.90;;;;;;4944595;28;20053;-86
2022/12/10 09:27:36;;;;;;;96.90;36.53;;;0.90;99.90;;;;;;4929087;28;20141;-85
2022/12/10 09:30:04;;;;;;;98.50;36.03;;;0.80;99.90;;;;;;4929564;28;20058;-86
2022/12/10 09:32:29;;;;;;;92.13;36.00;;;-0.50;99.90;;;;;;4945767;28;20046;-86
2022/12/10 09:34:55;;;;;;;87.07;36.28;;;-0.20;99.90;;;;;;4961026;28;20502;-85
2022/12/10 09:37:20;;;;;;;92.50;36.60;;;-0.50;99.90;;;;;;4944992;28;20052;-84
2022/12/10 09:39:46;;;;;;;89.55;36.45;;;-0.60;99.90;;;;;;4944469;28;20109;-84
2022/12/10 09:42:35;;;;;;;90.25;37.35;;;-0.70;99.90;;;;;;4959483;28;20085;-85
2022/12/10 09:45:12;;;;;;;93.63;37.20;;;-0.80;99.90;;;;;;4930978;28;20050;-86
2022/12/10 09:47:58;;;;;;;84.40;34.88;;;-0.60;99.90;;;;;;4960045;28;20049;-83
2022/12/10 09:50:55;;;;;;;93.53;37.08;;;-0.60;99.90;;;;;;4929869;28;20105;-84
2022/12/10 09:53:21;;;;;;;90.70;37.13;;;-0.60;99.90;;;;;;4922494;28;20058;-84
2022/12/10 09:55:47;;;;;;;94.35;37.90;;;0.70;99.90;;;;;;4928575;28;20360;-85
2022/12/10 09:58:19;;;;;;;86.03;34.60;;;1.00;99.90;;;;;;4928860;28;20047;-85
2022/12/10 10:00:46;;;;;;;97.47;37.97;;;0.40;99.90;;;;;;4928044;28;20093;-83
2022/12/10 10:03:12;;;;;;;92.78;38.22;;;-0.40;99.90;;;;;;4912562;28;20127;-84
2022/12/10 10:05:40;;;;;;;95.45;37.15;;;0.10;99.90;;;;;;4944173;28;20058;-83
2022/12/10 10:08:26;;;;;;;90.28;35.22;;;0.20;99.90;;;;;;4927577;28;20046;-83
2022/12/10 10:10:52;;;;;;;92.78;36.92;;;0.70;99.90;;;;;;4958979;28;20050;-83
2022/12/10 10:13:24;;;;;;;88.00;36.10;;;-0.50;99.90;;;;;;4942815;28;20070;-83
2022/12/10 10:15:50;;;;;;;94.90;37.95;;;-0.60;99.90;;;;;;4959019;28;20388;-84
2022/12/10 10:18:37;;;;;;;100.03;38.58;;;-0.20;99.90;;;;;;4943470;28;20137;-83
2022/12/10 10:21:11;;;;;;;100.85;38.30;;;-0.60;99.90;;;;;;4926985;28;20411;-83
2022/12/10 10:23:37;;;;;;;95.27;36.33;;;-0.60;99.90;;;;;;4928757;28;20047;-83
2022/12/10 10:26:02;;;;;;;85.82;33.58;;;-0.60;99.90;;;;;;4927180;28;20297;-83
2022/12/10 10:28:28;;;;;;;96.80;37.58;;;0.10;99.90;;;;;;4943327;28;20133;-83
2022/12/10 10:30:54;;;;;;;96.85;36.17;;;0.60;99.90;;;;;;4942826;28;20043;-82
2022/12/10 10:33:19;;;;;;;96.28;37.90;;;0.10;99.90;;;;;;4958765;28;20154;-83
2022/12/10 10:35:57;;;;;;;90.43;36.20;;;0.00;99.90;;;;;;4943861;28;20078;-83
2022/12/10 10:38:27;;;;;;;93.93;37.05;;;-0.60;99.90;;;;;;4945448;28;20070;-85
2022/12/10 10:40:56;;;;;;;88.28;36.17;;;-0.60;99.90;;;;;;4928451;28;20531;-84
2022/12/10 10:43:26;;;;;;;89.57;35.90;;;0.50;99.90;;;;;;4927947;28;20483;-84
2022/12/10 10:46:02;;;;;;;97.80;37.72;;;-0.50;99.90;;;;;;4911504;28;20480;-84
2022/12/10 10:48:28;;;;;;;96.97;36.10;;;-0.10;99.90;;;;;;4911599;28;20055;-83
2022/12/10 10:50:57;;;;;;;87.75;36.53;;;-0.50;99.90;;;;;;4927236;28;20398;-83
2022/12/10 10:53:29;;;;;;;98.85;37.85;;;-0.40;99.90;;;;;;4927873;28;20090;-84
2022/12/10 10:55:56;;;;;;;86.10;35.25;;;-0.50;99.90;;;;;;4928476;28;20459;-86
2022/12/10 10:58:23;;;;;;;96.78;39.70;;;-0.40;99.90;;;;;;4912602;28;20054;-83
2022/12/10 11:01:00;;;;;;;90.32;35.50;;;1.00;99.90;;;;;;4927791;28;20050;-84
2022/12/10 11:03:27;;;;;;;89.90;36.00;;;0.80;99.90;;;;;;4913141;28;20106;-83
2022/12/10 11:05:54;;;;;;;87.53;36.88;;;-0.50;99.90;;;;;;4928074;28;20120;-83
2022/12/10 11:08:22;;;;;;;89.53;36.40;;;-0.50;99.90;;;;;;4942431;28;20055;-84
2022/12/10 11:10:54;;;;;;;95.13;36.33;;;0.90;99.90;;;;;;4927367;28;20050;-84
2022/12/10 11:13:25;;;;;;;94.45;37.22;;;-0.10;99.90;;;;;;4944406;28;20051;-83
2022/12/10 11:16:10;;;;;;;88.47;36.75;;;0.80;99.90;;;;;;4944895;28;20050;-83
2022/12/10 11:18:37;;;;;;;82.78;33.38;;;-0.50;99.90;;;;;;4962075;28;20061;-84
2022/12/10 11:21:07;;;;;;;97.75;36.40;;;-0.20;99.90;;;;;;4958053;29;20154;-83
2022/12/10 11:23:43;;;;;;;93.65;36.78;;;0.70;99.90;;;;;;4943575;29;20043;-83
2022/12/10 11:26:18;;;;;;;89.05;36.10;;;-0.20;99.90;;;;;;4927346;29;20157;-84
2022/12/10 11:29:09;;;;;;;93.80;37.65;;;0.20;99.90;;;;;;4958565;29;20189;-83
2022/12/10 11:31:47;;;;;;;85.95;34.13;;;-0.50;99.90;;;;;;4942023;29;20087;-83
2022/12/10 11:34:42;;;;;;;90.93;35.42;;;-0.40;99.90;;;;;;4956963;29;20051;-85
2022/12/10 11:37:18;;;;;;;90.97;37.63;;;-0.40;99.90;;;;;;4928169;29;20059;-84
2022/12/10 11:40:20;;;;;;;89.45;36.70;;;0.20;99.90;;;;;;4927424;29;20094;-84
2022/12/10 11:43:14;;;;;;;95.72;34.78;;;-0.50;99.90;;;;;;4957786;29;20054;-85
2022/12/10 11:46:10;;;;;;;90.05;35.05;;;-0.40;99.90;;;;;;4956831;29;20051;-84
2022/12/10 11:48:47;;;;;;;92.50;35.10;;;-0.40;99.90;;;;;;4956794;29;20106;-83
2022/12/10 11:51:51;;;;;;;92.65;34.47;;;-0.40;99.90;;;;;;4940911;29;20055;-84
2022/12/10 11:54:35;;;;;;;99.57;36.83;;;-0.40;99.90;;;;;;4928795;29;20043;-84
2022/12/10 11:57:03;;;;;;;96.05;37.05;;;-0.40;99.90;;;;;;4958207;29;20054;-83
2022/12/10 11:59:40;;;;;;;93.60;36.67;;;-0.40;99.90;;;;;;4925721;29;20058;-84
2022/12/10 12:02:25;;;;;;;100.40;37.58;;;-0.40;99.90;;;;;;4926756;29;20113;-84
2022/12/10 12:05:12;;;;;;;97.63;37.25;;;-0.40;99.90;;;;;;4929208;29;20118;-84
2022/12/10 12:07:46;;;;;;;90.90;36.72;;;-0.40;99.90;;;;;;4961610;29;20140;-84
2022/12/10 12:10:34;;;;;;;94.40;37.63;;;-0.30;99.90;;;;;;4961568;29;20108;-85
2022/12/10 12:13:18;;;;;;;95.88;36.40;;;-0.40;99.90;;;;;;4945399;29;20051;-84
2022/12/10 12:16:03;;;;;;;98.15;36.65;;;-0.30;99.90;;;;;;4931241;29;20118;-84
2022/12/10 12:18:48;;;;;;;91.82;36.05;;;-0.30;99.90;;;;;;4947120;29;20049;-84
2022/12/10 12:21:15;;;;;;;96.82;36.35;;;-0.30;99.90;;;;;;4943661;29;20094;-84
2022/12/10 12:23:43;;;;;;;99.50;37.17;;;1.00;99.90;;;;;;4929105;29;20051;-84
2022/12/10 12:26:13;;;;;;;97.72;36.35;;;0.70;99.90;;;;;;4961484;29;20082;-83
2022/12/10 12:28:42;;;;;;;111.18;39.60;;;-0.30;99.90;;;;;;4913319;29;20051;-83
2022/12/10 12:31:32;;;;;;;103.38;37.75;;;0.60;99.90;;;;;;4944618;29;20054;-82
2022/12/10 12:34:16;;;;;;;104.47;35.63;;;-0.30;99.90;;;;;;4936208;29;20058;-83
2022/12/10 12:36:41;;;;;;;95.60;36.20;;;-0.30;99.90;;;;;;4960245;29;20066;-83
2022/12/10 12:39:38;;;;;;;96.72;36.13;;;-0.40;99.90;;;;;;4928613;29;20055;-84
2022/12/10 12:42:40;;;;;;;95.10;34.95;;;-0.30;99.90;;;;;;4947296;29;20062;-85